Springdale, South Carolina
Current Conditions -  °F | °C
As of 11:56 AM on Tuesday 27 Jan 2015 (Local Time) from KCAE Reporting Station
Overcast Overcast  
Wind Chill: 38°   Ceiling: 7500
Heat Index: 43°   Visibility: 10mi
Dew Point: 24°   Wind: 8mph
Humidity: 47%   Direction: 360°N
Pressure: 29.89"   Gusts: NA
Location:  33.9973°N, 81.0998°W
Report Text: KCAE 271656Z 36007KT 10SM OVC075 06/M04 A2989 RMK AO2 SLP122 T00611044
Loading
Personal Weather Stations






























Interactive Weather Map New forecast layout! Learn more

10-Day Weather Forecast

Advertisements
Track Severe Weather on mobile